createdAt,value
2022-11-02T00:01:09.666Z,11.08
2022-11-02T00:03:37.570Z,11.00
2022-11-02T00:06:05.564Z,10.93
2022-11-02T00:08:33.387Z,10.87
2022-11-02T00:11:01.231Z,10.86
2022-11-02T00:13:29.094Z,10.87
2022-11-02T00:15:58.518Z,10.93
2022-11-02T00:18:26.378Z,10.99
2022-11-02T00:20:54.217Z,10.86
2022-11-02T00:23:22.066Z,10.71
2022-11-02T00:25:52.958Z,10.70
2022-11-02T00:28:21.090Z,10.45
2022-11-02T00:30:49.052Z,10.61
2022-11-02T00:33:18.411Z,10.50
2022-11-02T00:35:46.814Z,10.39
2022-11-02T00:38:14.918Z,10.38
2022-11-02T00:40:42.806Z,10.35
2022-11-02T00:43:10.625Z,10.37
2022-11-02T00:45:38.745Z,10.38
2022-11-02T00:48:07.655Z,10.28
2022-11-02T00:50:37.047Z,10.42
2022-11-02T00:53:04.886Z,10.46
2022-11-02T00:55:32.710Z,10.65
2022-11-02T00:58:00.716Z,10.60
2022-11-02T01:00:28.711Z,10.51
2022-11-02T01:02:56.537Z,10.37
2022-11-02T01:05:24.390Z,10.38
2022-11-02T01:07:53.875Z,10.52
2022-11-02T01:10:21.993Z,10.63
2022-11-02T01:12:49.930Z,10.75
2022-11-02T01:15:17.935Z,10.82
2022-11-02T01:17:45.765Z,10.98
2022-11-02T01:20:14.274Z,10.89
2022-11-02T01:22:42.113Z,10.85
2022-11-02T01:25:11.489Z,10.71
2022-11-02T01:27:39.361Z,10.63
2022-11-02T01:30:08.255Z,10.62
2022-11-02T01:32:36.130Z,10.42
2022-11-02T01:35:05.604Z,10.43
2022-11-02T01:37:33.451Z,10.22
2022-11-02T01:40:01.478Z,10.01
2022-11-02T01:42:30.675Z,10.08
2022-11-02T01:44:58.503Z,10.43
2022-11-02T01:47:31.325Z,10.55
2022-11-02T01:50:04.371Z,10.69
2022-11-02T01:52:35.680Z,10.51
2022-11-02T01:55:08.137Z,10.92
2022-11-02T01:57:39.156Z,10.55
2022-11-02T02:00:09.955Z,10.66
2022-11-02T02:02:43.862Z,10.31
2022-11-02T02:05:14.723Z,10.24
2022-11-02T02:07:43.049Z,10.13
2022-11-02T02:10:11.265Z,9.86
2022-11-02T02:12:43.734Z,9.96
2022-11-02T02:15:13.122Z,9.70
2022-11-02T02:17:48.149Z,8.68
2022-11-02T02:20:27.355Z,9.60
2022-11-02T02:23:19.518Z,9.35
2022-11-02T02:26:05.469Z,9.38
2022-11-02T02:28:42.568Z,9.31
2022-11-02T02:31:15.819Z,9.31
2022-11-02T02:33:50.601Z,9.21
2022-11-02T02:36:22.754Z,9.21
2022-11-02T02:38:59.866Z,9.22
2022-11-02T02:41:39.266Z,9.08
2022-11-02T02:44:12.063Z,9.04
2022-11-02T02:46:46.629Z,8.69
2022-11-02T02:49:19.233Z,9.03
2022-11-02T02:51:48.409Z,9.03
2022-11-02T02:54:20.567Z,9.11
2022-11-02T02:56:53.806Z,9.31
2022-11-02T02:59:27.100Z,9.33
2022-11-02T03:01:57.140Z,9.22
2022-11-02T03:04:25.771Z,9.25
2022-11-02T03:06:58.140Z,9.03
2022-11-02T03:09:33.542Z,9.20
2022-11-02T03:12:14.166Z,9.22
2022-11-02T03:14:55.035Z,9.21
2022-11-02T03:17:31.710Z,9.26
2022-11-02T03:20:09.010Z,9.19
2022-11-02T03:22:48.362Z,9.04
2022-11-02T03:25:20.119Z,9.07
2022-11-02T03:27:54.325Z,9.13
2022-11-02T03:30:25.581Z,8.97
2022-11-02T03:33:02.288Z,8.89
2022-11-02T03:35:35.703Z,8.87
2022-11-02T03:38:07.583Z,8.83
2022-11-02T03:40:40.418Z,8.87
2022-11-02T03:43:08.673Z,8.87
2022-11-02T03:45:42.091Z,8.80
2022-11-02T03:48:13.834Z,8.77
2022-11-02T03:50:47.427Z,8.59
2022-11-02T03:53:22.260Z,8.57
2022-11-02T03:55:54.053Z,8.22
2022-11-02T03:58:21.913Z,8.48
2022-11-02T04:00:54.465Z,8.63
2022-11-02T04:03:25.084Z,8.71
2022-11-02T04:05:53.026Z,8.65
2022-11-02T04:08:29.330Z,8.63
2022-11-02T04:11:14.801Z,8.25
2022-11-02T04:14:00.188Z,8.63
2022-11-02T04:16:29.404Z,8.72
2022-11-02T04:19:14.873Z,8.91
2022-11-02T04:22:03.093Z,8.83
2022-11-02T04:24:48.491Z,8.83
2022-11-02T04:27:20.513Z,9.01
2022-11-02T04:29:48.669Z,8.91
2022-11-02T04:32:38.833Z,8.85
2022-11-02T04:35:07.046Z,9.12
2022-11-02T04:37:57.177Z,8.84
2022-11-02T04:40:25.157Z,8.98
2022-11-02T04:42:52.990Z,8.97
2022-11-02T04:45:20.838Z,9.08
2022-11-02T04:47:50.038Z,9.20
2022-11-02T04:50:18.055Z,9.13
2022-11-02T04:52:45.932Z,9.18
2022-11-02T04:55:13.787Z,9.11
2022-11-02T04:57:46.410Z,9.10
2022-11-02T05:00:15.634Z,9.03
2022-11-02T05:02:43.800Z,8.73
2022-11-02T05:05:13.117Z,8.53
2022-11-02T05:07:41.134Z,8.18
2022-11-02T05:10:10.285Z,8.35
2022-11-02T05:12:38.246Z,8.44
2022-11-02T05:15:07.102Z,8.51
2022-11-02T05:17:34.941Z,8.53
2022-11-02T05:20:03.946Z,8.63
2022-11-02T05:22:33.294Z,9.01
2022-11-02T05:25:01.131Z,9.10
2022-11-02T05:27:28.949Z,9.10
2022-11-02T05:29:56.755Z,9.60
2022-11-02T05:32:24.624Z,9.65
2022-11-02T05:34:52.508Z,9.56
2022-11-02T05:37:20.351Z,9.52
2022-11-02T05:39:50.619Z,9.61
2022-11-02T05:42:18.722Z,9.28
2022-11-02T05:44:46.573Z,9.80
2022-11-02T05:47:14.405Z,9.93
2022-11-02T05:49:42.422Z,10.06
2022-11-02T05:52:10.302Z,10.46
2022-11-02T05:54:38.136Z,10.65
2022-11-02T05:57:07.640Z,10.84
2022-11-02T05:59:35.474Z,10.99
2022-11-02T06:02:03.423Z,10.36
2022-11-02T06:04:31.430Z,11.14
2022-11-02T06:06:59.252Z,11.46
2022-11-02T06:09:27.661Z,11.54
2022-11-02T06:11:57.270Z,11.56
2022-11-02T06:14:26.658Z,11.48
2022-11-02T06:16:54.483Z,11.82
2022-11-02T06:19:22.377Z,11.39
2022-11-02T06:21:50.231Z,12.81
2022-11-02T06:24:18.116Z,12.29
2022-11-02T06:26:46.858Z,12.60
2022-11-02T06:29:15.036Z,12.77
2022-11-02T06:31:44.267Z,12.52
2022-11-02T06:34:12.149Z,12.42
2022-11-02T06:36:39.977Z,12.81
2022-11-02T06:39:07.842Z,12.89
2022-11-02T06:41:35.697Z,13.08
2022-11-02T06:44:03.584Z,13.28
2022-11-02T06:46:31.374Z,13.58
2022-11-02T06:49:00.598Z,13.66
2022-11-02T06:51:28.444Z,13.65
2022-11-02T06:53:56.451Z,13.95
2022-11-02T06:56:24.260Z,14.03
2022-11-02T06:58:52.183Z,14.10
2022-11-02T07:01:20.125Z,14.53
2022-11-02T07:03:48.026Z,14.88
2022-11-02T07:06:17.243Z,15.15
2022-11-02T07:08:45.150Z,15.20
2022-11-02T07:11:17.182Z,15.29
2022-11-02T07:13:45.313Z,15.48
2022-11-02T07:16:13.349Z,15.49
2022-11-02T07:18:41.751Z,15.86
2022-11-02T07:21:11.482Z,15.39
2022-11-02T07:27:31.262Z,15.28
2022-11-02T07:29:59.350Z,15.26
2022-11-02T07:32:27.259Z,15.51
2022-11-02T07:34:55.113Z,15.59
2022-11-02T07:37:22.930Z,16.08
2022-11-02T07:39:50.773Z,16.10
2022-11-02T07:42:18.696Z,15.96
2022-11-02T07:44:47.945Z,16.22
2022-11-02T07:47:15.814Z,15.75
2022-11-02T07:49:43.731Z,16.80
2022-11-02T07:52:11.548Z,16.96
2022-11-02T07:54:44.336Z,16.84
2022-11-02T07:57:12.561Z,17.14
2022-11-02T07:59:40.385Z,17.00
2022-11-02T08:02:13.648Z,16.99
2022-11-02T08:04:44.081Z,17.18
2022-11-02T08:07:13.027Z,17.40
2022-11-02T08:09:40.922Z,17.71
2022-11-02T08:12:08.855Z,17.94
2022-11-02T08:14:36.681Z,18.26
2022-11-02T08:17:04.595Z,19.00
2022-11-02T08:19:33.907Z,19.09
2022-11-02T08:22:01.753Z,19.24
2022-11-02T08:24:29.619Z,19.42
2022-11-02T08:26:57.446Z,19.44
2022-11-02T08:29:25.278Z,19.98
2022-11-02T08:31:53.155Z,19.94
2022-11-02T08:34:20.974Z,20.19
2022-11-02T08:36:50.180Z,20.01
2022-11-02T08:39:19.247Z,20.28
2022-11-02T08:41:47.220Z,20.16
2022-11-02T08:44:15.070Z,20.48
2022-11-02T08:46:42.986Z,21.05
2022-11-02T08:49:10.898Z,20.73
2022-11-02T08:51:38.761Z,20.73
2022-11-02T08:54:07.997Z,21.25
2022-11-02T08:56:35.904Z,20.87
2022-11-02T08:59:03.795Z,20.94
2022-11-02T09:01:31.684Z,21.04
2022-11-02T09:03:59.575Z,20.57
2022-11-02T09:06:27.430Z,21.12
2022-11-02T09:08:57.941Z,21.29
2022-11-02T09:11:28.299Z,20.31
2022-11-02T09:13:57.267Z,21.61
2022-11-02T09:16:25.254Z,21.82
2022-11-02T09:18:53.094Z,21.67
2022-11-02T09:21:20.917Z,21.54
2022-11-02T09:23:49.299Z,21.51
2022-11-02T09:26:17.180Z,21.31
2022-11-02T09:28:46.406Z,21.61
2022-11-02T09:31:14.261Z,21.92
2022-11-02T09:33:42.140Z,22.46
2022-11-02T09:36:10.722Z,22.90
2022-11-02T09:38:38.623Z,22.72
2022-11-02T09:41:15.418Z,22.61
2022-11-02T09:43:54.235Z,22.47
2022-11-02T09:46:26.942Z,22.85
2022-11-02T09:48:59.114Z,22.66
2022-11-02T09:51:30.379Z,22.64
2022-11-02T09:54:11.646Z,22.92
2022-11-02T09:56:45.654Z,23.35
2022-11-02T09:59:17.214Z,23.55
2022-11-02T10:01:59.933Z,23.70
2022-11-02T10:04:55.163Z,23.64
2022-11-02T10:07:39.489Z,23.85
2022-11-02T10:10:15.187Z,24.22
2022-11-02T10:12:52.459Z,22.72
2022-11-02T10:15:26.301Z,24.21
2022-11-02T10:17:58.915Z,24.32
2022-11-02T10:20:28.606Z,24.46
2022-11-02T10:23:03.749Z,24.82
2022-11-02T10:25:31.925Z,24.72
2022-11-02T10:28:04.794Z,25.16
2022-11-02T10:30:34.416Z,25.21
2022-11-02T10:33:02.599Z,25.13
2022-11-02T10:35:57.759Z,25.19
2022-11-02T10:38:39.291Z,25.56
2022-11-02T10:41:21.803Z,25.58
2022-11-02T10:44:10.029Z,25.71
2022-11-02T10:46:54.989Z,25.75
2022-11-02T10:49:46.727Z,25.78
2022-11-02T10:52:16.825Z,25.45
2022-11-02T10:54:44.663Z,26.01
2022-11-02T10:57:13.912Z,26.39
2022-11-02T10:59:42.123Z,26.44
2022-11-02T11:02:14.607Z,25.41
2022-11-02T11:04:43.906Z,26.13
2022-11-02T11:07:18.047Z,26.28
2022-11-02T11:09:51.726Z,26.37
2022-11-02T11:12:23.650Z,26.57
2022-11-02T11:20:37.341Z,27.24
2022-11-02T11:23:20.150Z,27.32
2022-11-02T11:26:02.261Z,27.49
2022-11-02T11:28:33.450Z,27.40
2022-11-02T11:31:08.903Z,27.66
2022-11-02T11:33:46.437Z,27.97
2022-11-02T11:38:59.409Z,28.18
2022-11-02T11:41:27.999Z,28.60
2022-11-02T11:43:56.280Z,28.55
2022-11-02T11:46:24.313Z,28.38
2022-11-02T11:48:56.354Z,28.27
2022-11-02T11:51:32.109Z,27.95
2022-11-02T11:54:20.426Z,27.77
2022-11-02T11:56:49.324Z,27.62
2022-11-02T11:59:29.614Z,27.75
2022-11-02T12:01:59.694Z,27.78
2022-11-02T12:04:30.940Z,27.97
2022-11-02T12:07:23.691Z,27.94
2022-11-02T12:10:02.785Z,28.11
2022-11-02T12:12:47.102Z,28.13
2022-11-02T12:15:25.194Z,28.11
2022-11-02T12:18:06.214Z,28.00
2022-11-02T12:20:55.844Z,27.81
2022-11-02T12:23:40.323Z,27.93
2022-11-02T12:26:22.281Z,28.18
2022-11-02T12:29:02.413Z,28.01
2022-11-02T12:31:36.764Z,27.91
2022-11-02T12:34:28.504Z,27.86
2022-11-02T12:37:35.351Z,27.94
2022-11-02T12:40:16.574Z,27.72
2022-11-02T12:42:54.972Z,27.86
2022-11-02T12:45:29.129Z,27.75
2022-11-02T12:48:00.093Z,27.61
2022-11-02T12:50:38.641Z,27.46
2022-11-02T12:53:23.375Z,27.53
2022-11-02T12:55:55.234Z,27.48
2022-11-02T12:58:27.323Z,27.62
2022-11-02T13:01:12.341Z,27.53
2022-11-02T13:03:48.929Z,27.51
2022-11-02T13:06:21.471Z,27.63
2022-11-02T13:08:55.223Z,27.34
2022-11-02T13:11:28.487Z,27.48
2022-11-02T13:13:59.186Z,27.40
2022-11-02T13:16:36.927Z,27.18
2022-11-02T13:19:06.592Z,26.82
2022-11-02T13:21:43.696Z,26.71
2022-11-02T13:24:19.643Z,26.49
2022-11-02T13:26:57.279Z,26.25
2022-11-02T13:29:37.186Z,26.40
2022-11-02T13:32:11.137Z,26.40
2022-11-02T13:34:42.718Z,26.08
2022-11-02T13:37:15.911Z,25.88
2022-11-02T13:39:51.564Z,25.44
2022-11-02T13:42:38.186Z,25.58
2022-11-02T13:45:38.708Z,25.36
2022-11-02T13:48:33.419Z,25.26
2022-11-02T13:51:06.540Z,25.24
2022-11-02T13:53:38.702Z,25.23
2022-11-02T13:56:10.897Z,25.14
2022-11-02T13:58:50.734Z,25.11
2022-11-02T14:01:20.849Z,25.03
2022-11-02T14:03:56.155Z,24.99
2022-11-02T14:06:28.553Z,24.95
2022-11-02T14:08:59.514Z,24.95
2022-11-02T14:11:50.083Z,24.65
2022-11-02T14:14:23.617Z,24.68
2022-11-02T14:17:13.634Z,24.62
2022-11-02T14:19:56.934Z,24.20
2022-11-02T14:22:24.799Z,24.30
2022-11-02T14:25:05.930Z,24.13
2022-11-02T14:27:35.530Z,24.09
2022-11-02T14:30:03.475Z,24.05
2022-11-02T14:32:52.115Z,23.93
2022-11-02T14:35:39.405Z,23.82
2022-11-02T14:38:39.506Z,23.70
2022-11-02T14:41:23.975Z,23.58
2022-11-02T14:44:15.869Z,23.46
2022-11-02T14:46:56.668Z,23.33
2022-11-02T14:49:28.863Z,22.99
2022-11-02T14:52:04.593Z,23.11
2022-11-02T14:54:35.635Z,23.15
2022-11-02T14:57:07.341Z,23.04
2022-11-02T14:59:39.702Z,22.95
2022-11-02T15:02:13.786Z,22.90
2022-11-02T15:04:50.842Z,22.84
2022-11-02T15:07:23.685Z,21.92
2022-11-02T15:09:54.221Z,22.68
2022-11-02T15:12:28.720Z,22.59
2022-11-02T15:15:00.555Z,22.44
2022-11-02T15:17:54.488Z,22.36
2022-11-02T15:20:33.633Z,22.20
2022-11-02T15:23:29.491Z,22.12
2022-11-02T15:25:59.865Z,21.93
2022-11-02T15:28:30.725Z,21.80
2022-11-02T15:31:05.302Z,21.75
2022-11-02T15:33:37.958Z,21.69
2022-11-02T15:36:09.760Z,21.56
2022-11-02T15:38:40.331Z,21.48
2022-11-02T15:41:20.646Z,21.41
2022-11-02T15:44:00.544Z,21.33
2022-11-02T15:46:43.166Z,21.14
2022-11-02T15:49:26.087Z,21.14
2022-11-02T15:52:04.598Z,21.04
2022-11-02T15:54:50.802Z,21.01
2022-11-02T15:57:30.243Z,21.00
2022-11-02T16:00:13.267Z,20.94
2022-11-02T16:02:44.801Z,20.85
2022-11-02T16:05:23.512Z,20.78
2022-11-02T16:10:41.554Z,20.67
2022-11-02T16:13:17.070Z,20.58
2022-11-02T16:15:46.308Z,20.53
2022-11-02T16:18:26.698Z,20.42
2022-11-02T16:20:57.019Z,20.38
2022-11-02T16:23:28.038Z,20.29
2022-11-02T16:25:58.376Z,20.17
2022-11-02T16:28:28.411Z,20.08
2022-11-02T16:31:12.501Z,20.06
2022-11-02T16:33:47.594Z,19.98
2022-11-02T16:36:18.233Z,19.97
2022-11-02T16:38:54.077Z,19.91
2022-11-02T16:41:22.142Z,19.80
2022-11-02T16:43:51.885Z,19.78
2022-11-02T16:46:30.797Z,19.73
2022-11-02T16:49:13.378Z,19.63
2022-11-02T16:51:41.769Z,19.51
2022-11-02T16:54:30.649Z,19.42
2022-11-02T16:57:03.279Z,19.34
2022-11-02T16:59:36.068Z,19.29
2022-11-02T17:02:06.081Z,19.23
2022-11-02T17:04:42.464Z,19.17
2022-11-02T17:07:14.675Z,19.10
2022-11-02T17:09:43.099Z,19.03
2022-11-02T17:12:16.253Z,18.95
2022-11-02T17:14:46.656Z,18.54
2022-11-02T17:17:36.418Z,18.84
2022-11-02T17:20:18.139Z,18.40
2022-11-02T17:22:55.285Z,18.81
2022-11-02T17:25:25.524Z,18.80
2022-11-02T17:27:55.362Z,18.74
2022-11-02T17:30:49.191Z,18.64
2022-11-02T17:33:24.802Z,18.60
2022-11-02T17:35:55.905Z,18.55
2022-11-02T17:38:26.890Z,18.52
2022-11-02T17:40:55.501Z,18.36
2022-11-02T17:43:23.737Z,18.21
2022-11-02T17:45:58.164Z,18.31
2022-11-02T17:48:28.526Z,18.17
2022-11-02T17:50:59.871Z,18.30
2022-11-02T17:53:28.222Z,18.35
2022-11-02T17:55:56.216Z,18.28
2022-11-02T17:58:24.086Z,18.26
2022-11-02T18:00:54.094Z,18.15
2022-11-02T18:03:25.567Z,18.08
2022-11-02T18:06:00.207Z,18.06
2022-11-02T18:08:28.506Z,18.04
2022-11-02T18:10:56.386Z,17.75
2022-11-02T18:13:25.774Z,17.97
2022-11-02T18:15:53.629Z,17.96
2022-11-02T18:18:21.508Z,17.89
2022-11-02T18:20:49.583Z,17.91
2022-11-02T18:23:19.902Z,17.95
2022-11-02T18:25:47.935Z,17.96
2022-11-02T18:28:15.782Z,18.00
2022-11-02T18:30:45.093Z,17.89
2022-11-02T18:33:13.989Z,17.91
2022-11-02T18:35:42.242Z,17.87
2022-11-02T18:38:10.152Z,17.78
2022-11-02T18:40:39.389Z,17.77
2022-11-02T18:43:07.795Z,17.71
2022-11-02T18:45:35.915Z,17.84
2022-11-02T18:48:04.280Z,17.85
2022-11-02T18:50:32.550Z,17.79
2022-11-02T18:53:00.474Z,18.03
2022-11-02T18:55:28.347Z,18.01
2022-11-02T18:57:57.549Z,18.04
2022-11-02T19:00:25.397Z,18.02
2022-11-02T19:02:53.278Z,17.96
2022-11-02T19:05:38.382Z,17.97
2022-11-02T19:08:23.839Z,17.95
2022-11-02T19:10:52.330Z,18.02
2022-11-02T19:13:21.535Z,18.01
2022-11-02T19:15:49.487Z,17.97
2022-11-02T19:18:17.346Z,17.96
2022-11-02T19:20:45.274Z,17.81
2022-11-02T19:23:13.105Z,17.64
2022-11-02T19:25:40.951Z,17.69
2022-11-02T19:28:09.001Z,17.65
2022-11-02T19:30:39.771Z,17.68
2022-11-02T19:33:08.484Z,17.66
2022-11-02T19:35:36.457Z,17.66
2022-11-02T19:38:04.302Z,17.63
2022-11-02T19:40:32.142Z,17.62
2022-11-02T19:42:59.959Z,17.59
2022-11-02T19:45:27.978Z,17.55
2022-11-02T19:47:57.442Z,17.57
2022-11-02T19:50:25.416Z,17.54
2022-11-02T19:52:53.498Z,17.57
2022-11-02T19:55:25.154Z,17.50
2022-11-02T19:57:53.761Z,17.45
2022-11-02T20:00:21.805Z,17.40
2022-11-02T20:02:50.496Z,17.36
2022-11-02T20:05:19.798Z,17.33
2022-11-02T20:07:47.711Z,17.47
2022-11-02T20:10:15.742Z,17.47
2022-11-02T20:12:43.640Z,17.37
2022-11-02T20:15:12.227Z,17.42
2022-11-02T20:17:58.226Z,17.53
2022-11-02T20:20:29.258Z,17.56
2022-11-02T20:22:57.086Z,17.53
2022-11-02T20:25:25.718Z,17.45
2022-11-02T20:27:54.059Z,17.45
2022-11-02T20:30:22.407Z,17.41
2022-11-02T20:32:50.587Z,17.41
2022-11-02T20:35:22.826Z,17.42
2022-11-02T20:37:52.079Z,17.39
2022-11-02T20:40:19.986Z,17.44
2022-11-02T20:42:50.335Z,17.44
2022-11-02T20:45:18.934Z,17.38
2022-11-02T20:47:46.798Z,17.38
2022-11-02T20:50:17.535Z,17.39
2022-11-02T20:52:46.777Z,17.52
2022-11-02T20:55:16.404Z,17.57
2022-11-02T20:57:44.212Z,17.60
2022-11-02T21:00:14.190Z,17.63
2022-11-02T21:02:42.020Z,17.62
2022-11-02T21:05:10.566Z,17.62
2022-11-02T21:07:38.458Z,17.61
2022-11-02T21:10:07.551Z,17.55
2022-11-02T21:12:54.507Z,17.49
2022-11-02T21:15:22.351Z,17.45
2022-11-02T21:17:50.202Z,17.46
2022-11-02T21:20:34.984Z,17.47
2022-11-02T21:23:03.324Z,17.47
2022-11-02T21:25:31.949Z,17.48
2022-11-02T21:28:01.419Z,17.50
2022-11-02T21:30:30.942Z,17.34
2022-11-02T21:32:59.038Z,17.11
2022-11-02T21:35:27.003Z,17.32
2022-11-02T21:37:57.497Z,17.37
2022-11-02T21:40:25.622Z,17.13
2022-11-02T21:42:53.482Z,17.48
2022-11-02T21:45:25.994Z,17.51
2022-11-02T21:47:54.200Z,17.51
2022-11-02T21:50:22.040Z,17.45
2022-11-02T21:52:49.888Z,17.42
2022-11-02T21:55:18.264Z,17.43
2022-11-02T21:57:46.128Z,17.37
2022-11-02T22:00:15.014Z,17.31
2022-11-02T22:02:43.353Z,17.27
2022-11-02T22:05:31.233Z,17.21
2022-11-02T22:08:16.685Z,17.21
2022-11-02T22:10:44.634Z,17.15
2022-11-02T22:13:29.795Z,17.24
2022-11-02T22:15:57.670Z,17.13
2022-11-02T22:18:26.870Z,17.33
2022-11-02T22:20:55.342Z,17.18
2022-11-02T22:23:23.159Z,17.37
2022-11-02T22:25:58.315Z,17.42
2022-11-02T22:28:29.540Z,16.82
2022-11-02T22:30:57.593Z,17.40
2022-11-02T22:33:27.482Z,17.42
2022-11-02T22:35:55.321Z,17.55
2022-11-02T22:38:40.435Z,17.54
2022-11-02T22:41:08.291Z,17.52
2022-11-02T22:43:36.117Z,17.51
2022-11-02T22:46:05.693Z,17.42
2022-11-02T22:48:36.430Z,17.30
2022-11-02T22:51:06.077Z,17.36
2022-11-02T22:53:34.548Z,17.29
2022-11-02T22:56:03.809Z,17.22
2022-11-02T22:58:32.924Z,17.21
2022-11-02T23:01:01.019Z,17.19
2022-11-02T23:03:31.537Z,17.13
2022-11-02T23:06:01.004Z,17.04
2022-11-02T23:08:29.923Z,17.01
2022-11-02T23:11:17.348Z,16.93
2022-11-02T23:13:48.467Z,16.94
2022-11-02T23:16:22.909Z,16.97
2022-11-02T23:19:13.778Z,16.86
2022-11-02T23:21:45.227Z,16.84
2022-11-02T23:24:30.654Z,16.80
2022-11-02T23:26:59.034Z,16.73
2022-11-02T23:29:44.546Z,16.72
2022-11-02T23:32:29.541Z,16.75
2022-11-02T23:35:16.265Z,16.74
2022-11-02T23:37:47.047Z,16.77
2022-11-02T23:40:16.617Z,16.80
2022-11-02T23:42:44.449Z,16.76
2022-11-02T23:45:12.866Z,16.75
2022-11-02T23:47:57.460Z,16.77
2022-11-02T23:50:44.074Z,16.77
2022-11-02T23:53:32.740Z,16.79
2022-11-02T23:56:18.786Z,16.80
2022-11-02T23:58:46.941Z,16.69
